Addicks Barker, Texas
Current Conditions -  °F | °C
As of 1:15 PM on Thursday 18 Dec 2014 (Local Time) from KTME Reporting Station
Broken Clouds Broken Clouds  
Wind Chill: 68°   Ceiling: 3300
Heat Index: 68°   Visibility: 9mi
Dew Point: 63°   Wind: 3mph
Humidity: 83%   Direction: 60°ENE
Pressure: 30.06"   Gusts: NA
Location:  29.8301°N, 95.6661°W
Report Text: KTME 181915Z AUTO 06003KT 9SM FEW011 BKN033 BKN039 20/17 A3006 RMK AO2
Loading
Personal Weather Stations






























Interactive Weather Map New forecast layout! Learn more

10-Day Weather Forecast

Advertisements
Track Severe Weather on mobile